NCAR-RAP Real-Time Weather Data

Output produced by METARs form (01 August 2015  13:47 UTC)
found at http://weather.rap.ucar.edu/surface/
 
Conditions at: KSDF observed 01 August 2015  12:56 UTC
Temperature: 25.6°C (78°F)
Dewpoint: 17.8°C (64°F) [RH = 62%]
Pressure (altimeter): 30.01 inches Hg (1016.3 mb)
[Sea-level pressure: 1015.8 mb]
Winds: from the WNW (290 degrees) at 3 MPH (3 knots; 1.6 m/s)
Visibility: 9 miles (14 km)
Ceiling: at least 12,000 feet AGL
Clouds: few clouds at 25000 feet AGL
Present Weather: no significant weather observed at this time
KSDF 011256Z 29003KT 9SM FEW250 26/18 A3001 RMK AO2 SLP158 T02560178